sensor_id;sensor_type;location;lat;lon;timestamp;temperature;humidity
423;DHT22;198;48.752;9.180;2023-03-03T00:00:59;5.40;97.00
423;DHT22;198;48.752;9.180;2023-03-03T00:03:25;5.40;96.70
423;DHT22;198;48.752;9.180;2023-03-03T00:05:52;5.40;96.60
423;DHT22;198;48.752;9.180;2023-03-03T00:08:18;5.40;96.60
423;DHT22;198;48.752;9.180;2023-03-03T00:10:45;5.40;96.60
423;DHT22;198;48.752;9.180;2023-03-03T00:13:16;5.40;96.40
423;DHT22;198;48.752;9.180;2023-03-03T00:15:42;5.30;96.20
423;DHT22;198;48.752;9.180;2023-03-03T00:18:35;5.30;96.40
423;DHT22;198;48.752;9.180;2023-03-03T00:21:02;5.30;96.40
423;DHT22;198;48.752;9.180;2023-03-03T00:23:30;5.20;96.20
423;DHT22;198;48.752;9.180;2023-03-03T00:25:57;5.20;96.40
423;DHT22;198;48.752;9.180;2023-03-03T00:28:29;5.20;96.50
423;DHT22;198;48.752;9.180;2023-03-03T00:30:58;5.10;96.60
423;DHT22;198;48.752;9.180;2023-03-03T00:33:38;5.00;96.80
423;DHT22;198;48.752;9.180;2023-03-03T00:36:35;5.00;97.20
423;DHT22;198;48.752;9.180;2023-03-03T00:39:28;4.90;97.40
423;DHT22;198;48.752;9.180;2023-03-03T00:41:54;4.90;97.70
423;DHT22;198;48.752;9.180;2023-03-03T00:44:43;4.80;98.00
423;DHT22;198;48.752;9.180;2023-03-03T00:50:40;4.70;98.50
423;DHT22;198;48.752;9.180;2023-03-03T00:52:50;4.70;98.50
423;DHT22;198;48.752;9.180;2023-03-03T00:55:17;4.60;98.80
423;DHT22;198;48.752;9.180;2023-03-03T00:57:43;4.60;99.20
423;DHT22;198;48.752;9.180;2023-03-03T01:00:09;4.50;99.30
423;DHT22;198;48.752;9.180;2023-03-03T01:02:35;4.50;99.50
423;DHT22;198;48.752;9.180;2023-03-03T01:05:01;4.50;99.30
423;DHT22;198;48.752;9.180;2023-03-03T01:07:26;4.40;99.50
423;DHT22;198;48.752;9.180;2023-03-03T01:09:52;4.40;99.90
423;DHT22;198;48.752;9.180;2023-03-03T01:12:17;4.40;99.90
423;DHT22;198;48.752;9.180;2023-03-03T01:14:43;4.40;99.90
423;DHT22;198;48.752;9.180;2023-03-03T01:17:09;4.30;99.90
423;DHT22;198;48.752;9.180;2023-03-03T01:19:35;4.30;99.90
423;DHT22;198;48.752;9.180;2023-03-03T01:22:00;4.20;99.90
423;DHT22;198;48.752;9.180;2023-03-03T01:24:26;4.20;99.90
423;DHT22;198;48.752;9.180;2023-03-03T01:26:51;4.20;99.90
423;DHT22;198;48.752;9.180;2023-03-03T01:29:17;4.10;99.90
423;DHT22;198;48.752;9.180;2023-03-03T01:31:42;4.20;99.90
423;DHT22;198;48.752;9.180;2023-03-03T01:34:08;4.10;99.90
423;DHT22;198;48.752;9.180;2023-03-03T01:36:33;4.10;99.90
423;DHT22;198;48.752;9.180;2023-03-03T01:38:59;4.10;99.90
423;DHT22;198;48.752;9.180;2023-03-03T01:41:29;4.00;99.90
423;DHT22;198;48.752;9.180;2023-03-03T01:43:58;4.00;99.90
423;DHT22;198;48.752;9.180;2023-03-03T01:48:51;4.00;99.90
423;DHT22;198;48.752;9.180;2023-03-03T01:54:39;3.90;99.90
423;DHT22;198;48.752;9.180;2023-03-03T01:57:11;3.80;99.90
423;DHT22;198;48.752;9.180;2023-03-03T01:59:43;3.80;99.90
423;DHT22;198;48.752;9.180;2023-03-03T02:02:09;3.80;99.90
423;DHT22;198;48.752;9.180;2023-03-03T02:04:35;3.90;99.90
423;DHT22;198;48.752;9.180;2023-03-03T02:07:05;3.80;99.90
423;DHT22;198;48.752;9.180;2023-03-03T02:09:58;3.80;99.90
423;DHT22;198;48.752;9.180;2023-03-03T02:12:32;3.80;99.90
423;DHT22;198;48.752;9.180;2023-03-03T02:14:58;3.80;99.90
423;DHT22;198;48.752;9.180;2023-03-03T02:17:23;3.80;99.90
423;DHT22;198;48.752;9.180;2023-03-03T02:20:00;3.80;99.90
423;DHT22;198;48.752;9.180;2023-03-03T02:22:38;3.80;99.90
423;DHT22;198;48.752;9.180;2023-03-03T02:25:07;3.80;99.90
423;DHT22;198;48.752;9.180;2023-03-03T02:27:34;3.80;99.90
423;DHT22;198;48.752;9.180;2023-03-03T02:30:15;3.70;99.90
423;DHT22;198;48.752;9.180;2023-03-03T02:32:41;3.70;99.90
423;DHT22;198;48.752;9.180;2023-03-03T02:35:27;3.70;99.90
423;DHT22;198;48.752;9.180;2023-03-03T02:37:56;3.70;99.90
423;DHT22;198;48.752;9.180;2023-03-03T02:40:25;3.70;99.90
423;DHT22;198;48.752;9.180;2023-03-03T02:42:54;3.70;99.90
423;DHT22;198;48.752;9.180;2023-03-03T02:45:21;3.70;99.90
423;DHT22;198;48.752;9.180;2023-03-03T02:47:50;3.70;99.90
423;DHT22;198;48.752;9.180;2023-03-03T02:50:16;3.70;99.90
423;DHT22;198;48.752;9.180;2023-03-03T02:52:41;3.80;99.90
423;DHT22;198;48.752;9.180;2023-03-03T02:55:07;3.90;99.90
423;DHT22;198;48.752;9.180;2023-03-03T02:57:33;4.00;99.90
423;DHT22;198;48.752;9.180;2023-03-03T02:59:58;4.10;99.90
423;DHT22;198;48.752;9.180;2023-03-03T03:02:24;4.20;99.90
423;DHT22;198;48.752;9.180;2023-03-03T03:04:51;4.30;99.90
423;DHT22;198;48.752;9.180;2023-03-03T03:07:17;4.40;99.90
423;DHT22;198;48.752;9.180;2023-03-03T03:09:42;4.50;99.90
423;DHT22;198;48.752;9.180;2023-03-03T03:12:08;4.50;99.90
423;DHT22;198;48.752;9.180;2023-03-03T03:14:34;4.60;99.90
423;DHT22;198;48.752;9.180;2023-03-03T03:17:00;4.60;99.90
423;DHT22;198;48.752;9.180;2023-03-03T03:19:26;4.70;99.90
423;DHT22;198;48.752;9.180;2023-03-03T03:21:52;4.70;99.90
423;DHT22;198;48.752;9.180;2023-03-03T03:24:18;4.70;99.90
423;DHT22;198;48.752;9.180;2023-03-03T03:26:43;4.80;99.90
423;DHT22;198;48.752;9.180;2023-03-03T03:29:09;4.80;99.90
423;DHT22;198;48.752;9.180;2023-03-03T03:31:35;4.90;99.90
423;DHT22;198;48.752;9.180;2023-03-03T03:34:00;4.90;99.90
423;DHT22;198;48.752;9.180;2023-03-03T03:36:26;4.90;99.90
423;DHT22;198;48.752;9.180;2023-03-03T03:38:52;4.90;99.90
423;DHT22;198;48.752;9.180;2023-03-03T03:41:18;5.00;99.90
423;DHT22;198;48.752;9.180;2023-03-03T03:43:43;5.00;99.90
423;DHT22;198;48.752;9.180;2023-03-03T03:46:09;5.00;99.70
423;DHT22;198;48.752;9.180;2023-03-03T03:48:35;5.00;99.60
423;DHT22;198;48.752;9.180;2023-03-03T03:51:01;4.90;99.20
423;DHT22;198;48.752;9.180;2023-03-03T03:53:26;4.90;99.90
423;DHT22;198;48.752;9.180;2023-03-03T03:55:52;4.90;99.40
423;DHT22;198;48.752;9.180;2023-03-03T03:58:18;4.90;99.40
423;DHT22;198;48.752;9.180;2023-03-03T04:00:44;4.80;99.90
423;DHT22;198;48.752;9.180;2023-03-03T04:03:10;4.80;99.90
423;DHT22;198;48.752;9.180;2023-03-03T04:05:36;4.80;99.90
423;DHT22;198;48.752;9.180;2023-03-03T04:08:02;4.80;99.90
423;DHT22;198;48.752;9.180;2023-03-03T04:10:28;4.90;99.90
423;DHT22;198;48.752;9.180;2023-03-03T04:12:53;4.90;99.90
423;DHT22;198;48.752;9.180;2023-03-03T04:15:19;4.90;99.80
423;DHT22;198;48.752;9.180;2023-03-03T04:17:44;4.90;99.60
423;DHT22;198;48.752;9.180;2023-03-03T04:20:12;4.90;99.50
423;DHT22;198;48.752;9.180;2023-03-03T04:22:39;5.00;99.30
423;DHT22;198;48.752;9.180;2023-03-03T04:25:05;5.00;99.20
423;DHT22;198;48.752;9.180;2023-03-03T04:27:33;5.00;99.00
423;DHT22;198;48.752;9.180;2023-03-03T04:29:58;5.00;98.70
423;DHT22;198;48.752;9.180;2023-03-03T04:32:24;5.00;98.80
423;DHT22;198;48.752;9.180;2023-03-03T04:34:50;5.00;98.70
423;DHT22;198;48.752;9.180;2023-03-03T04:37:15;5.00;98.30
423;DHT22;198;48.752;9.180;2023-03-03T04:39:41;5.00;98.70
423;DHT22;198;48.752;9.180;2023-03-03T04:42:06;5.00;98.50
423;DHT22;198;48.752;9.180;2023-03-03T04:44:32;5.00;98.40
423;DHT22;198;48.752;9.180;2023-03-03T04:46:57;5.00;98.20
423;DHT22;198;48.752;9.180;2023-03-03T04:49:23;5.00;97.70
423;DHT22;198;48.752;9.180;2023-03-03T04:51:49;5.00;97.10
423;DHT22;198;48.752;9.180;2023-03-03T04:54:14;4.90;97.40
423;DHT22;198;48.752;9.180;2023-03-03T04:56:39;4.90;97.40
423;DHT22;198;48.752;9.180;2023-03-03T04:59:05;5.00;97.50
423;DHT22;198;48.752;9.180;2023-03-03T05:01:30;4.90;97.30
423;DHT22;198;48.752;9.180;2023-03-03T05:03:56;4.80;98.00
423;DHT22;198;48.752;9.180;2023-03-03T05:06:21;4.90;98.40
423;DHT22;198;48.752;9.180;2023-03-03T05:08:47;4.90;98.40
423;DHT22;198;48.752;9.180;2023-03-03T05:11:13;4.90;98.30
423;DHT22;198;48.752;9.180;2023-03-03T05:13:38;4.90;98.40
423;DHT22;198;48.752;9.180;2023-03-03T05:16:05;5.00;98.00
423;DHT22;198;48.752;9.180;2023-03-03T05:18:30;5.00;97.90
423;DHT22;198;48.752;9.180;2023-03-03T05:20:56;5.00;97.50
423;DHT22;198;48.752;9.180;2023-03-03T05:23:22;5.00;97.60
423;DHT22;198;48.752;9.180;2023-03-03T05:25:47;5.00;96.90
423;DHT22;198;48.752;9.180;2023-03-03T05:28:13;5.00;97.00
423;DHT22;198;48.752;9.180;2023-03-03T05:30:39;4.90;97.00
423;DHT22;198;48.752;9.180;2023-03-03T05:33:05;4.90;97.20
423;DHT22;198;48.752;9.180;2023-03-03T05:35:31;4.90;96.80
423;DHT22;198;48.752;9.180;2023-03-03T05:37:57;4.90;96.70
423;DHT22;198;48.752;9.180;2023-03-03T05:40:24;4.90;96.70
423;DHT22;198;48.752;9.180;2023-03-03T05:42:50;4.90;96.90
423;DHT22;198;48.752;9.180;2023-03-03T05:45:16;4.90;96.60
423;DHT22;198;48.752;9.180;2023-03-03T05:47:44;4.90;96.70
423;DHT22;198;48.752;9.180;2023-03-03T05:50:10;4.90;96.70
423;DHT22;198;48.752;9.180;2023-03-03T05:52:36;4.80;96.30
423;DHT22;198;48.752;9.180;2023-03-03T05:55:02;4.90;96.80
423;DHT22;198;48.752;9.180;2023-03-03T05:57:28;4.80;96.10
423;DHT22;198;48.752;9.180;2023-03-03T05:59:53;4.90;96.30
423;DHT22;198;48.752;9.180;2023-03-03T06:02:19;5.00;96.00
423;DHT22;198;48.752;9.180;2023-03-03T06:04:45;5.00;95.40
423;DHT22;198;48.752;9.180;2023-03-03T06:07:10;4.90;95.70
423;DHT22;198;48.752;9.180;2023-03-03T06:09:36;4.90;95.60
423;DHT22;198;48.752;9.180;2023-03-03T06:12:01;4.90;96.20
423;DHT22;198;48.752;9.180;2023-03-03T06:14:27;4.90;95.70
423;DHT22;198;48.752;9.180;2023-03-03T06:16:53;4.90;95.50
423;DHT22;198;48.752;9.180;2023-03-03T06:19:18;4.90;95.50
423;DHT22;198;48.752;9.180;2023-03-03T06:21:44;4.90;95.20
423;DHT22;198;48.752;9.180;2023-03-03T06:24:09;4.90;95.00
423;DHT22;198;48.752;9.180;2023-03-03T06:26:35;4.90;95.00
423;DHT22;198;48.752;9.180;2023-03-03T06:29:00;5.00;95.20
423;DHT22;198;48.752;9.180;2023-03-03T06:31:26;5.00;94.40
423;DHT22;198;48.752;9.180;2023-03-03T06:33:52;4.90;94.00
423;DHT22;198;48.752;9.180;2023-03-03T06:36:19;5.00;94.00
423;DHT22;198;48.752;9.180;2023-03-03T06:38:44;5.00;93.70
423;DHT22;198;48.752;9.180;2023-03-03T06:41:10;5.00;93.30
423;DHT22;198;48.752;9.180;2023-03-03T06:43:36;4.90;93.20
423;DHT22;198;48.752;9.180;2023-03-03T06:46:03;4.90;92.90
423;DHT22;198;48.752;9.180;2023-03-03T06:48:29;4.90;92.80
423;DHT22;198;48.752;9.180;2023-03-03T06:50:54;4.80;92.70
423;DHT22;198;48.752;9.180;2023-03-03T06:53:20;4.90;93.00
423;DHT22;198;48.752;9.180;2023-03-03T06:55:46;5.00;92.40
423;DHT22;198;48.752;9.180;2023-03-03T06:58:19;5.00;91.70
423;DHT22;198;48.752;9.180;2023-03-03T07:00:57;5.00;91.70
423;DHT22;198;48.752;9.180;2023-03-03T07:03:27;5.00;91.90
423;DHT22;198;48.752;9.180;2023-03-03T07:05:55;5.10;91.80
423;DHT22;198;48.752;9.180;2023-03-03T07:08:22;5.10;91.90
423;DHT22;198;48.752;9.180;2023-03-03T07:10:50;5.20;91.50
423;DHT22;198;48.752;9.180;2023-03-03T07:13:21;5.20;91.50
423;DHT22;198;48.752;9.180;2023-03-03T07:15:52;5.20;91.10
423;DHT22;198;48.752;9.180;2023-03-03T07:18:36;5.20;91.20
423;DHT22;198;48.752;9.180;2023-03-03T07:23:41;5.40;90.80
423;DHT22;198;48.752;9.180;2023-03-03T07:26:12;5.50;90.40
423;DHT22;198;48.752;9.180;2023-03-03T07:28:43;5.50;90.40
423;DHT22;198;48.752;9.180;2023-03-03T07:31:41;5.60;89.80
423;DHT22;198;48.752;9.180;2023-03-03T07:34:20;5.70;89.60
423;DHT22;198;48.752;9.180;2023-03-03T07:36:47;5.70;88.20
423;DHT22;198;48.752;9.180;2023-03-03T07:39:29;5.80;87.60
423;DHT22;198;48.752;9.180;2023-03-03T07:42:01;5.90;86.40
423;DHT22;198;48.752;9.180;2023-03-03T07:44:35;5.90;84.80
423;DHT22;198;48.752;9.180;2023-03-03T07:49:59;6.00;83.80
423;DHT22;198;48.752;9.180;2023-03-03T07:52:55;6.00;83.70
423;DHT22;198;48.752;9.180;2023-03-03T07:58:47;6.30;83.50
423;DHT22;198;48.752;9.180;2023-03-03T08:01:37;6.70;81.50
423;DHT22;198;48.752;9.180;2023-03-03T08:06:59;7.20;79.20
423;DHT22;198;48.752;9.180;2023-03-03T08:09:36;7.50;77.90
423;DHT22;198;48.752;9.180;2023-03-03T08:14:34;8.10;74.90
423;DHT22;198;48.752;9.180;2023-03-03T08:17:00;8.40;72.60
423;DHT22;198;48.752;9.180;2023-03-03T08:19:27;8.50;73.30
423;DHT22;198;48.752;9.180;2023-03-03T08:21:59;8.80;71.30
423;DHT22;198;48.752;9.180;2023-03-03T08:24:26;8.90;69.10
423;DHT22;198;48.752;9.180;2023-03-03T08:26:52;8.90;66.80
423;DHT22;198;48.752;9.180;2023-03-03T08:29:17;9.00;66.90
423;DHT22;198;48.752;9.180;2023-03-03T08:31:43;8.90;66.10
423;DHT22;198;48.752;9.180;2023-03-03T08:34:09;8.90;67.60
423;DHT22;198;48.752;9.180;2023-03-03T08:36:34;8.90;67.70
423;DHT22;198;48.752;9.180;2023-03-03T08:39:00;9.00;67.90
423;DHT22;198;48.752;9.180;2023-03-03T08:41:26;9.10;67.00
423;DHT22;198;48.752;9.180;2023-03-03T08:43:51;9.00;66.50
423;DHT22;198;48.752;9.180;2023-03-03T08:46:17;8.90;65.90
423;DHT22;198;48.752;9.180;2023-03-03T08:48:42;9.00;65.70
423;DHT22;198;48.752;9.180;2023-03-03T08:51:08;8.90;64.00
423;DHT22;198;48.752;9.180;2023-03-03T08:53:33;9.00;65.60
423;DHT22;198;48.752;9.180;2023-03-03T08:56:02;9.30;64.90
423;DHT22;198;48.752;9.180;2023-03-03T08:58:27;9.40;63.50
423;DHT22;198;48.752;9.180;2023-03-03T09:00:53;9.60;64.30
423;DHT22;198;48.752;9.180;2023-03-03T09:03:18;9.80;62.20
423;DHT22;198;48.752;9.180;2023-03-03T09:05:44;10.20;61.50
423;DHT22;198;48.752;9.180;2023-03-03T09:08:10;10.50;59.70
423;DHT22;198;48.752;9.180;2023-03-03T09:10:36;10.90;59.20
423;DHT22;198;48.752;9.180;2023-03-03T09:13:09;11.60;59.10
423;DHT22;198;48.752;9.180;2023-03-03T09:15:37;12.40;56.30
423;DHT22;198;48.752;9.180;2023-03-03T09:18:30;13.00;53.20
423;DHT22;198;48.752;9.180;2023-03-03T09:20:56;13.60;53.60
423;DHT22;198;48.752;9.180;2023-03-03T09:23:36;14.60;52.10
423;DHT22;198;48.752;9.180;2023-03-03T09:26:41;15.00;48.40
423;DHT22;198;48.752;9.180;2023-03-03T09:29:44;15.40;47.30
423;DHT22;198;48.752;9.180;2023-03-03T09:32:32;15.70;47.20
423;DHT22;198;48.752;9.180;2023-03-03T09:34:59;15.80;46.20
423;DHT22;198;48.752;9.180;2023-03-03T09:37:35;16.30;45.20
423;DHT22;198;48.752;9.180;2023-03-03T09:40:27;16.10;43.70
423;DHT22;198;48.752;9.180;2023-03-03T09:43:09;15.40;43.20
423;DHT22;198;48.752;9.180;2023-03-03T09:48:34;15.30;43.90
423;DHT22;198;48.752;9.180;2023-03-03T09:56:40;15.60;43.80
423;DHT22;198;48.752;9.180;2023-03-03T10:05:08;16.30;42.60
423;DHT22;198;48.752;9.180;2023-03-03T10:13:12;15.80;42.70
423;DHT22;198;48.752;9.180;2023-03-03T10:15:52;16.20;42.70
423;DHT22;198;48.752;9.180;2023-03-03T10:19:00;17.10;42.60
423;DHT22;198;48.752;9.180;2023-03-03T10:21:39;18.30;40.60
423;DHT22;198;48.752;9.180;2023-03-03T10:24:20;18.60;39.10
423;DHT22;198;48.752;9.180;2023-03-03T10:27:11;18.10;38.50
423;DHT22;198;48.752;9.180;2023-03-03T10:32:51;17.60;40.40
423;DHT22;198;48.752;9.180;2023-03-03T10:36:03;17.70;40.00
423;DHT22;198;48.752;9.180;2023-03-03T10:41:39;17.40;39.20
423;DHT22;198;48.752;9.180;2023-03-03T10:44:16;17.60;40.10
423;DHT22;198;48.752;9.180;2023-03-03T10:46:51;18.80;39.20
423;DHT22;198;48.752;9.180;2023-03-03T10:52:17;19.80;37.20
423;DHT22;198;48.752;9.180;2023-03-03T10:55:04;19.80;36.40
423;DHT22;198;48.752;9.180;2023-03-03T11:06:25;19.50;35.60
423;DHT22;198;48.752;9.180;2023-03-03T11:09:23;19.20;35.50
423;DHT22;198;48.752;9.180;2023-03-03T11:14:44;17.90;36.70
423;DHT22;198;48.752;9.180;2023-03-03T11:17:43;17.70;36.90
423;DHT22;198;48.752;9.180;2023-03-03T11:20:36;17.50;38.10
423;DHT22;198;48.752;9.180;2023-03-03T11:28:28;18.10;37.70
423;DHT22;198;48.752;9.180;2023-03-03T11:31:19;17.80;37.70
423;DHT22;198;48.752;9.180;2023-03-03T11:38:58;17.10;38.70
423;DHT22;198;48.752;9.180;2023-03-03T11:41:45;16.60;39.10
423;DHT22;198;48.752;9.180;2023-03-03T11:44:28;16.20;39.60
423;DHT22;198;48.752;9.180;2023-03-03T11:47:16;15.70;40.60
423;DHT22;198;48.752;9.180;2023-03-03T11:52:54;15.00;41.10
423;DHT22;198;48.752;9.180;2023-03-03T11:55:29;14.90;41.90
423;DHT22;198;48.752;9.180;2023-03-03T11:58:06;14.90;42.40
423;DHT22;198;48.752;9.180;2023-03-03T12:00:40;14.80;42.50
423;DHT22;198;48.752;9.180;2023-03-03T12:09:23;16.60;41.20
423;DHT22;198;48.752;9.180;2023-03-03T12:12:04;17.80;40.40
423;DHT22;198;48.752;9.180;2023-03-03T12:17:29;22.90;35.80
423;DHT22;198;48.752;9.180;2023-03-03T12:20:33;25.10;33.00
423;DHT22;198;48.752;9.180;2023-03-03T12:24:05;26.70;30.90
423;DHT22;198;48.752;9.180;2023-03-03T12:26:24;28.00;28.70
423;DHT22;198;48.752;9.180;2023-03-03T12:28:57;28.70;27.50
423;DHT22;198;48.752;9.180;2023-03-03T12:31:32;29.60;26.70
423;DHT22;198;48.752;9.180;2023-03-03T12:39:40;30.00;25.50
423;DHT22;198;48.752;9.180;2023-03-03T12:45:28;28.70;25.60
423;DHT22;198;48.752;9.180;2023-03-03T12:48:15;28.60;25.60
423;DHT22;198;48.752;9.180;2023-03-03T12:59:35;31.20;23.90
423;DHT22;198;48.752;9.180;2023-03-03T13:02:19;30.70;23.60
423;DHT22;198;48.752;9.180;2023-03-03T13:07:42;31.40;23.30
423;DHT22;198;48.752;9.180;2023-03-03T13:10:38;31.50;23.50
423;DHT22;198;48.752;9.180;2023-03-03T13:13:14;31.90;23.10
423;DHT22;198;48.752;9.180;2023-03-03T13:24:06;32.20;22.60
423;DHT22;198;48.752;9.180;2023-03-03T13:26:49;32.40;22.70
423;DHT22;198;48.752;9.180;2023-03-03T13:29:26;31.50;22.40
423;DHT22;198;48.752;9.180;2023-03-03T13:32:19;29.70;23.50
423;DHT22;198;48.752;9.180;2023-03-03T13:37:43;25.90;25.60
423;DHT22;198;48.752;9.180;2023-03-03T13:45:24;21.30;28.40
423;DHT22;198;48.752;9.180;2023-03-03T13:48:14;20.30;29.90
423;DHT22;198;48.752;9.180;2023-03-03T13:50:54;19.50;31.20
423;DHT22;198;48.752;9.180;2023-03-03T13:53:49;18.80;32.40
423;DHT22;198;48.752;9.180;2023-03-03T14:05:01;16.50;35.10
423;DHT22;198;48.752;9.180;2023-03-03T14:07:33;16.10;35.10
423;DHT22;198;48.752;9.180;2023-03-03T14:13:12;15.40;35.60
423;DHT22;198;48.752;9.180;2023-03-03T14:15:55;15.10;37.20
423;DHT22;198;48.752;9.180;2023-03-03T14:21:00;14.50;38.10
423;DHT22;198;48.752;9.180;2023-03-03T14:26:10;14.40;38.20
423;DHT22;198;48.752;9.180;2023-03-03T14:28:46;14.30;38.90
423;DHT22;198;48.752;9.180;2023-03-03T14:31:28;14.10;39.00
423;DHT22;198;48.752;9.180;2023-03-03T14:34:01;13.80;39.70
423;DHT22;198;48.752;9.180;2023-03-03T14:36:31;13.70;39.60
423;DHT22;198;48.752;9.180;2023-03-03T14:38:58;13.70;39.90
423;DHT22;198;48.752;9.180;2023-03-03T14:41:40;13.70;39.70
423;DHT22;198;48.752;9.180;2023-03-03T14:44:28;13.60;40.30
423;DHT22;198;48.752;9.180;2023-03-03T14:49:36;13.40;40.20
423;DHT22;198;48.752;9.180;2023-03-03T14:54:46;12.90;41.00
423;DHT22;198;48.752;9.180;2023-03-03T14:57:15;12.80;42.20
423;DHT22;198;48.752;9.180;2023-03-03T14:59:59;12.80;42.00
423;DHT22;198;48.752;9.180;2023-03-03T15:02:34;12.80;42.10
423;DHT22;198;48.752;9.180;2023-03-03T15:05:19;12.60;41.70
423;DHT22;198;48.752;9.180;2023-03-03T15:07:50;12.60;42.40
423;DHT22;198;48.752;9.180;2023-03-03T15:10:38;12.60;42.20
423;DHT22;198;48.752;9.180;2023-03-03T15:18:30;12.60;43.10
423;DHT22;198;48.752;9.180;2023-03-03T15:24:13;13.10;42.80
423;DHT22;198;48.752;9.180;2023-03-03T15:27:34;13.30;42.20
423;DHT22;198;48.752;9.180;2023-03-03T15:30:14;13.40;42.00
423;DHT22;198;48.752;9.180;2023-03-03T15:33:12;13.70;42.20
423;DHT22;198;48.752;9.180;2023-03-03T15:36:00;13.90;41.20
423;DHT22;198;48.752;9.180;2023-03-03T15:38:41;14.00;41.10
423;DHT22;198;48.752;9.180;2023-03-03T15:41:18;14.40;41.20
423;DHT22;198;48.752;9.180;2023-03-03T15:43:48;15.20;40.30
423;DHT22;198;48.752;9.180;2023-03-03T15:52:34;17.40;36.90
423;DHT22;198;48.752;9.180;2023-03-03T16:03:26;18.60;35.20
423;DHT22;198;48.752;9.180;2023-03-03T16:06:04;18.50;34.60
423;DHT22;198;48.752;9.180;2023-03-03T16:11:39;18.70;35.00
423;DHT22;198;48.752;9.180;2023-03-03T16:19:58;16.90;36.00
423;DHT22;198;48.752;9.180;2023-03-03T16:22:40;16.30;37.00
423;DHT22;198;48.752;9.180;2023-03-03T16:25:33;15.50;37.40
423;DHT22;198;48.752;9.180;2023-03-03T16:28:45;14.80;38.60
423;DHT22;198;48.752;9.180;2023-03-03T16:31:21;14.10;39.60
423;DHT22;198;48.752;9.180;2023-03-03T16:42:25;12.10;42.60
423;DHT22;198;48.752;9.180;2023-03-03T16:50:26;11.40;44.30
423;DHT22;198;48.752;9.180;2023-03-03T16:53:04;11.10;44.60
423;DHT22;198;48.752;9.180;2023-03-03T16:55:41;10.80;45.60
423;DHT22;198;48.752;9.180;2023-03-03T17:06:48;10.10;47.30
423;DHT22;198;48.752;9.180;2023-03-03T17:12:29;10.00;48.00
423;DHT22;198;48.752;9.180;2023-03-03T17:15:21;9.80;49.30
423;DHT22;198;48.752;9.180;2023-03-03T17:20:47;9.60;50.00
423;DHT22;198;48.752;9.180;2023-03-03T17:40:39;8.90;52.90
423;DHT22;198;48.752;9.180;2023-03-03T17:43:21;8.80;52.90
423;DHT22;198;48.752;9.180;2023-03-03T17:45:49;8.70;53.40
423;DHT22;198;48.752;9.180;2023-03-03T17:48:32;8.60;53.60
423;DHT22;198;48.752;9.180;2023-03-03T17:51:35;8.50;53.80
423;DHT22;198;48.752;9.180;2023-03-03T17:57:23;8.40;54.10
423;DHT22;198;48.752;9.180;2023-03-03T17:59:47;8.40;54.70
423;DHT22;198;48.752;9.180;2023-03-03T18:02:47;8.40;54.90
423;DHT22;198;48.752;9.180;2023-03-03T18:05:28;8.30;55.00
423;DHT22;198;48.752;9.180;2023-03-03T18:22:46;7.90;57.00
423;DHT22;198;48.752;9.180;2023-03-03T18:25:17;7.80;57.10
423;DHT22;198;48.752;9.180;2023-03-03T18:27:45;7.80;57.60
423;DHT22;198;48.752;9.180;2023-03-03T18:35:33;7.60;58.30
423;DHT22;198;48.752;9.180;2023-03-03T18:41:01;7.50;58.80
423;DHT22;198;48.752;9.180;2023-03-03T18:43:40;7.40;59.40
423;DHT22;198;48.752;9.180;2023-03-03T18:49:06;7.20;60.20
423;DHT22;198;48.752;9.180;2023-03-03T19:02:19;7.10;63.20
423;DHT22;198;48.752;9.180;2023-03-03T19:05:16;7.20;63.50
423;DHT22;198;48.752;9.180;2023-03-03T19:18:21;7.10;65.50
423;DHT22;198;48.752;9.180;2023-03-03T19:21:02;7.10;65.60
423;DHT22;198;48.752;9.180;2023-03-03T19:37:34;6.90;68.20
423;DHT22;198;48.752;9.180;2023-03-03T19:48:49;6.80;69.50
423;DHT22;198;48.752;9.180;2023-03-03T19:51:33;6.70;70.60
423;DHT22;198;48.752;9.180;2023-03-03T19:54:25;6.70;70.70
423;DHT22;198;48.752;9.180;2023-03-03T19:56:59;6.60;71.60
423;DHT22;198;48.752;9.180;2023-03-03T19:59:41;6.60;72.50
423;DHT22;198;48.752;9.180;2023-03-03T20:04:51;6.60;72.60
423;DHT22;198;48.752;9.180;2023-03-03T20:20:56;6.40;73.50
423;DHT22;198;48.752;9.180;2023-03-03T20:26:33;6.20;75.10
423;DHT22;198;48.752;9.180;2023-03-03T20:29:15;6.10;75.90
423;DHT22;198;48.752;9.180;2023-03-03T20:37:09;6.10;76.50
423;DHT22;198;48.752;9.180;2023-03-03T20:39:54;6.10;76.50
423;DHT22;198;48.752;9.180;2023-03-03T20:45:45;6.20;76.50
423;DHT22;198;48.752;9.180;2023-03-03T20:48:21;6.10;76.90
423;DHT22;198;48.752;9.180;2023-03-03T20:50:57;6.10;77.70
423;DHT22;198;48.752;9.180;2023-03-03T20:56:35;6.00;78.00
423;DHT22;198;48.752;9.180;2023-03-03T21:05:15;5.80;79.60
423;DHT22;198;48.752;9.180;2023-03-03T21:07:53;5.80;79.90
423;DHT22;198;48.752;9.180;2023-03-03T21:10:22;5.90;80.20
423;DHT22;198;48.752;9.180;2023-03-03T21:12:53;5.90;80.50
423;DHT22;198;48.752;9.180;2023-03-03T21:15:30;5.90;80.40
423;DHT22;198;48.752;9.180;2023-03-03T21:17:57;5.90;80.70
423;DHT22;198;48.752;9.180;2023-03-03T21:22:49;5.90;80.70
423;DHT22;198;48.752;9.180;2023-03-03T21:31:12;5.80;80.90
423;DHT22;198;48.752;9.180;2023-03-03T21:33:54;5.70;82.00
423;DHT22;198;48.752;9.180;2023-03-03T21:36:21;5.70;82.20
423;DHT22;198;48.752;9.180;2023-03-03T21:38:49;5.70;82.50
423;DHT22;198;48.752;9.180;2023-03-03T21:41:15;5.70;82.70
423;DHT22;198;48.752;9.180;2023-03-03T21:43:42;5.70;82.80
423;DHT22;198;48.752;9.180;2023-03-03T21:46:09;5.70;82.90
423;DHT22;198;48.752;9.180;2023-03-03T21:48:38;5.70;83.20
423;DHT22;198;48.752;9.180;2023-03-03T21:51:03;5.70;83.50
423;DHT22;198;48.752;9.180;2023-03-03T21:53:29;5.60;83.80
423;DHT22;198;48.752;9.180;2023-03-03T21:55:55;5.60;83.60
423;DHT22;198;48.752;9.180;2023-03-03T21:58:20;5.60;84.10
423;DHT22;198;48.752;9.180;2023-03-03T22:00:46;5.60;84.60
423;DHT22;198;48.752;9.180;2023-03-03T22:03:12;5.50;84.40
423;DHT22;198;48.752;9.180;2023-03-03T22:05:39;5.60;84.80
423;DHT22;198;48.752;9.180;2023-03-03T22:08:08;5.50;85.00
423;DHT22;198;48.752;9.180;2023-03-03T22:10:34;5.50;85.30
423;DHT22;198;48.752;9.180;2023-03-03T22:12:59;5.50;85.60
423;DHT22;198;48.752;9.180;2023-03-03T22:15:25;5.50;85.60
423;DHT22;198;48.752;9.180;2023-03-03T22:17:52;5.50;85.70
423;DHT22;198;48.752;9.180;2023-03-03T22:20:17;5.50;85.90
423;DHT22;198;48.752;9.180;2023-03-03T22:22:44;5.50;85.80
423;DHT22;198;48.752;9.180;2023-03-03T22:25:10;5.50;86.30
423;DHT22;198;48.752;9.180;2023-03-03T22:27:36;5.50;86.40
423;DHT22;198;48.752;9.180;2023-03-03T22:30:01;5.50;86.50
423;DHT22;198;48.752;9.180;2023-03-03T22:32:27;5.40;87.30
423;DHT22;198;48.752;9.180;2023-03-03T22:34:54;5.40;87.00
423;DHT22;198;48.752;9.180;2023-03-03T22:37:20;5.40;87.00
423;DHT22;198;48.752;9.180;2023-03-03T22:39:45;5.30;87.00
423;DHT22;198;48.752;9.180;2023-03-03T22:42:11;5.30;87.70
423;DHT22;198;48.752;9.180;2023-03-03T22:44:36;5.30;88.00
423;DHT22;198;48.752;9.180;2023-03-03T22:47:02;5.30;88.40
423;DHT22;198;48.752;9.180;2023-03-03T22:49:28;5.30;88.70
423;DHT22;198;48.752;9.180;2023-03-03T22:51:54;5.20;88.80
423;DHT22;198;48.752;9.180;2023-03-03T22:54:23;5.20;89.10
423;DHT22;198;48.752;9.180;2023-03-03T22:56:48;5.20;89.40
423;DHT22;198;48.752;9.180;2023-03-03T22:59:14;5.10;89.40
423;DHT22;198;48.752;9.180;2023-03-03T23:01:39;5.10;89.80